This is the latest recevied weather packets stored in our database for station/object SP9TWP-3. If no packets are shown the sender has not sent any weather packets the latest 10 day(s).
| Time | Temp. | Humidity | Pressure | Rain* | Wind** | Luminosity | Snow |
|---|---|---|---|---|---|---|---|
| 1777791686 | 19.44° C | 37% | 1018.3 hPa | - | - | - | - |
| 1777790786 | 18.89° C | 36% | 1018.4 hPa | - | - | - | - |
| 1777789886 | 18.89° C | 37% | 1018.4 hPa | - | - | - | - |
| 1777788986 | 17.78° C | 39% | 1018.3 hPa | - | - | - | - |
| 1777788086 | 16.67° C | 41% | 1018.3 hPa | - | - | - | - |
| 1777787186 | 16.11° C | 42% | 1018.4 hPa | - | - | - | - |
| 1777786285 | 15.56° C | 41% | 1018.3 hPa | - | - | - | - |
| 1777785385 | 15.56° C | 44% | 1018.3 hPa | - | - | - | - |
| 1777784485 | 13.89° C | 47% | 1018.3 hPa | - | - | - | - |
| 1777783585 | 13.89° C | 48% | 1018.3 hPa | - | - | - | - |
| 1777782685 | 12.78° C | 52% | 1018.2 hPa | - | - | - | - |
| 1777781785 | 11.67° C | 54% | 1018.1 hPa | - | - | - | - |
| 1777780884 | 10.56° C | 56% | 1018 hPa | - | - | - | - |
| 1777779984 | 9.44° C | 60% | 1018 hPa | - | - | - | - |
| 1777779084 | 8.89° C | 60% | 1017.9 hPa | - | - | - | - |
| 1777778184 | 8.89° C | 61% | 1017.8 hPa | - | - | - | - |
| 1777777284 | 8.89° C | 61% | 1017.8 hPa | - | - | - | - |
| 1777776384 | 8.89° C | 60% | 1017.8 hPa | - | - | - | - |
| 1777775484 | 9.44° C | 59% | 1017.9 hPa | - | - | - | - |
| 1777774583 | 9.44° C | 58% | 1018 hPa | - | - | - | - |
| 1777773683 | 10° C | 57% | 1017.8 hPa | - | - | - | - |
| 1777772783 | 10° C | 58% | 1017.9 hPa | - | - | - | - |
| 1777771883 | 10° C | 57% | 1018.1 hPa | - | - | - | - |
| 1777770983 | 10.56° C | 56% | 1018.1 hPa | - | - | - | - |
| 1777770082 | 10° C | 57% | 1018.2 hPa | - | - | - | - |
* Rain since midnight (hover to see other rain measurements)
** Current wind speed in m/s (hover to see current wind gust speed)